Time;durP1;ratioP1;P1;durP2;ratioP2;P2;SDS_P1;SDS_P2;PMS_P1;PMS_P2;Temp;Humidity;BMP_temperature;BMP_pressure;BME280_temperature;BME280_humidity;BME280_pressure;Samples;Min_cycle;Max_cycle;Signal;HPM_P1;HPM_P2
2020/12/03 00:02:14;;;;;;;19.23;13.63;;;4.40;99.90;;;;;;5006551;28;20238;-83
2020/12/03 00:04:41;;;;;;;19.90;13.20;;;4.40;99.90;;;;;;5020800;28;20779;-85
2020/12/03 00:07:07;;;;;;;18.33;12.53;;;4.40;99.90;;;;;;5021781;28;20174;-83
2020/12/03 00:09:32;;;;;;;18.10;13.03;;;4.30;99.90;;;;;;5005608;28;20218;-85
2020/12/03 00:11:59;;;;;;;19.30;13.10;;;4.20;99.90;;;;;;5005827;28;20193;-83
2020/12/03 00:14:24;;;;;;;19.87;13.27;;;4.30;99.90;;;;;;5005629;28;20183;-83
2020/12/03 00:16:50;;;;;;;22.70;13.50;;;4.30;99.90;;;;;;5004633;28;20186;-82
2020/12/03 00:19:17;;;;;;;20.60;12.80;;;4.20;99.90;;;;;;5005324;28;20214;-84
2020/12/03 00:21:48;;;;;;;22.67;13.33;;;4.30;99.90;;;;;;5004925;28;20212;-84
2020/12/03 00:24:17;;;;;;;20.00;12.63;;;4.30;99.90;;;;;;5004118;28;20183;-83
2020/12/03 00:26:42;;;;;;;19.63;12.27;;;4.30;99.90;;;;;;5003641;28;20183;-84
2020/12/03 00:29:08;;;;;;;17.43;12.83;;;4.30;99.90;;;;;;5003949;28;20202;-84
2020/12/03 00:31:34;;;;;;;17.77;12.60;;;4.40;99.90;;;;;;5021635;28;20174;-83
2020/12/03 00:33:59;;;;;;;19.57;12.87;;;4.30;99.90;;;;;;5005232;28;20189;-84
2020/12/03 00:36:25;;;;;;;18.87;13.23;;;4.20;99.90;;;;;;5004815;28;20179;-84
2020/12/03 00:38:50;;;;;;;19.53;13.40;;;4.30;99.90;;;;;;5004528;28;20570;-83
2020/12/03 00:41:17;;;;;;;18.10;12.20;;;4.30;99.90;;;;;;5021354;28;20199;-83
2020/12/03 00:43:42;;;;;;;17.47;12.30;;;4.30;99.90;;;;;;5005013;28;20240;-83
2020/12/03 00:46:08;;;;;;;18.40;12.10;;;4.30;99.90;;;;;;5004811;28;20171;-83
2020/12/03 00:48:33;;;;;;;19.77;13.17;;;4.20;99.90;;;;;;5006324;28;20197;-83
2020/12/03 00:50:59;;;;;;;20.73;13.70;;;4.20;99.90;;;;;;5005822;28;20213;-83
2020/12/03 00:53:24;;;;;;;21.93;13.47;;;4.20;99.90;;;;;;5005939;28;20186;-83
2020/12/03 00:55:50;;;;;;;19.57;13.80;;;4.20;99.90;;;;;;5022743;28;20197;-83
2020/12/03 00:58:16;;;;;;;18.43;12.93;;;4.20;99.90;;;;;;5023000;28;20205;-84
2020/12/03 01:00:42;;;;;;;18.30;12.90;;;4.20;99.90;;;;;;5023144;28;20226;-83
2020/12/03 01:03:07;;;;;;;18.73;12.37;;;4.20;99.90;;;;;;5005677;28;20177;-84
2020/12/03 01:05:33;;;;;;;19.10;13.67;;;4.20;99.90;;;;;;5023091;28;20181;-83
2020/12/03 01:07:59;;;;;;;19.40;12.73;;;4.20;99.90;;;;;;5008743;28;20175;-84
2020/12/03 01:10:30;;;;;;;21.23;13.43;;;4.20;99.90;;;;;;5007083;28;20651;-82
2020/12/03 01:12:57;;;;;;;20.90;14.27;;;4.20;99.90;;;;;;5006680;28;20183;-83
2020/12/03 01:15:22;;;;;;;20.17;13.37;;;4.20;99.90;;;;;;5010406;28;20534;-83
2020/12/03 01:17:48;;;;;;;21.23;13.93;;;4.20;99.90;;;;;;5023330;28;20209;-83
2020/12/03 01:20:19;;;;;;;22.87;14.67;;;4.10;99.90;;;;;;5005634;28;20237;-83
2020/12/03 01:22:44;;;;;;;20.63;14.03;;;4.10;99.90;;;;;;5006352;28;20228;-83
2020/12/03 01:25:10;;;;;;;23.23;13.50;;;4.00;99.90;;;;;;5005854;28;20174;-83
2020/12/03 01:27:36;;;;;;;21.10;14.57;;;4.00;99.90;;;;;;5004540;28;20243;-83
2020/12/03 01:30:04;;;;;;;22.67;14.27;;;4.00;99.90;;;;;;5004471;28;20199;-83
2020/12/03 01:32:30;;;;;;;23.57;15.10;;;4.00;99.90;;;;;;5003603;28;20247;-83
2020/12/03 01:34:55;;;;;;;22.90;15.40;;;4.00;99.90;;;;;;5022496;28;20238;-83
2020/12/03 01:37:21;;;;;;;23.47;15.10;;;4.00;99.90;;;;;;5005578;28;20207;-83
2020/12/03 01:39:46;;;;;;;23.17;15.27;;;4.00;99.90;;;;;;5006664;28;20222;-83
2020/12/03 01:42:12;;;;;;;23.77;15.93;;;4.00;99.90;;;;;;5021468;28;20175;-84
2020/12/03 01:44:46;;;;;;;25.33;15.60;;;3.90;99.90;;;;;;5023402;28;20647;-83
2020/12/03 01:47:35;;;;;;;25.57;15.50;;;4.00;99.90;;;;;;5008860;28;20163;-83
2020/12/03 01:50:01;;;;;;;26.50;17.67;;;3.90;99.90;;;;;;5006533;28;20615;-84
2020/12/03 01:52:26;;;;;;;28.03;17.60;;;3.90;99.90;;;;;;5004762;28;20183;-84
2020/12/03 01:54:52;;;;;;;29.57;18.07;;;3.90;99.90;;;;;;5007223;28;20183;-83
2020/12/03 01:57:45;;;;;;;26.57;17.70;;;3.90;99.90;;;;;;5026443;28;20835;-83
2020/12/03 02:00:15;;;;;;;29.50;18.20;;;3.90;99.90;;;;;;5008043;28;20213;-83
2020/12/03 02:02:49;;;;;;;28.60;17.07;;;3.80;99.90;;;;;;5007106;28;20244;-84
2020/12/03 02:05:19;;;;;;;29.37;17.93;;;3.80;99.90;;;;;;5009259;28;20597;-82
2020/12/03 02:07:44;;;;;;;27.13;18.10;;;3.80;99.90;;;;;;5005106;28;20182;-82
2020/12/03 02:10:10;;;;;;;31.43;18.73;;;3.80;99.90;;;;;;5020090;28;20182;-83
2020/12/03 02:12:36;;;;;;;29.73;17.87;;;3.70;99.90;;;;;;5005205;28;20187;-85
2020/12/03 02:15:03;;;;;;;32.07;19.00;;;3.80;99.90;;;;;;5003878;28;20181;-82
2020/12/03 02:17:29;;;;;;;30.83;19.27;;;3.80;99.90;;;;;;5003907;28;20179;-86
2020/12/03 02:19:59;;;;;;;28.67;18.43;;;3.80;99.90;;;;;;5002791;28;20211;-85
2020/12/03 02:22:24;;;;;;;29.63;18.63;;;3.80;99.90;;;;;;5019870;28;20258;-84
2020/12/03 02:24:50;;;;;;;29.90;18.57;;;3.80;99.90;;;;;;5006708;28;20214;-82
2020/12/03 02:27:18;;;;;;;28.17;18.50;;;3.80;99.90;;;;;;5008115;28;20194;-82
2020/12/03 02:29:43;;;;;;;29.67;18.10;;;3.80;99.90;;;;;;5022749;28;20197;-84
2020/12/03 02:32:09;;;;;;;27.67;17.80;;;3.80;99.90;;;;;;5021641;28;20175;-84
2020/12/03 02:34:34;;;;;;;30.77;19.20;;;3.90;99.90;;;;;;5006967;28;20178;-81
2020/12/03 02:37:00;;;;;;;28.17;18.27;;;3.80;99.90;;;;;;5005707;28;20182;-85
2020/12/03 02:39:26;;;;;;;29.23;18.97;;;3.80;99.90;;;;;;5005165;28;20621;-84
2020/12/03 02:42:11;;;;;;;32.03;19.90;;;3.80;99.90;;;;;;5005055;28;20718;-84
2020/12/03 02:44:42;;;;;;;31.43;19.80;;;3.80;99.90;;;;;;5023638;28;20175;-83
2020/12/03 02:47:08;;;;;;;33.23;20.10;;;3.80;99.90;;;;;;5005336;28;20221;-85
2020/12/03 02:49:35;;;;;;;32.57;19.90;;;3.80;99.90;;;;;;5005381;28;20616;-86
2020/12/03 02:52:01;;;;;;;29.20;19.00;;;3.80;99.90;;;;;;5004677;28;20182;-85
2020/12/03 02:54:26;;;;;;;29.60;18.73;;;3.80;99.90;;;;;;5005516;28;20182;-85
2020/12/03 02:57:07;;;;;;;29.03;19.23;;;3.80;99.90;;;;;;5004639;28;20204;-84
2020/12/03 03:00:15;;;;;;;30.40;19.23;;;3.80;99.90;;;;;;5004038;28;20285;-84
2020/12/03 03:02:41;;;;;;;30.23;19.33;;;3.80;99.90;;;;;;4985587;28;20211;-83
2020/12/03 03:05:06;;;;;;;31.33;19.57;;;3.80;99.90;;;;;;4999848;28;20617;-83
2020/12/03 03:07:38;;;;;;;32.73;19.63;;;3.90;99.90;;;;;;4983098;28;20210;-81
2020/12/03 03:10:24;;;;;;;27.40;17.97;;;3.80;99.90;;;;;;5006022;28;20286;-84
2020/12/03 03:12:49;;;;;;;29.47;18.20;;;3.80;99.90;;;;;;4999165;28;20207;-84
2020/12/03 03:15:47;;;;;;;33.40;20.07;;;3.90;99.90;;;;;;5000613;28;20651;-84
2020/12/03 03:18:12;;;;;;;31.27;19.83;;;3.90;99.90;;;;;;4903634;29;20283;-85
2020/12/03 03:20:38;;;;;;;27.70;18.10;;;3.90;99.90;;;;;;4888346;29;20234;-84
2020/12/03 03:23:39;;;;;;;29.37;17.60;;;3.90;99.90;;;;;;4888949;29;20194;-83
2020/12/03 03:26:04;;;;;;;28.97;17.90;;;3.90;99.90;;;;;;4887929;29;20206;-84
2020/12/03 03:28:30;;;;;;;29.87;18.50;;;3.80;99.90;;;;;;4956194;28;20212;-83
2020/12/03 03:30:56;;;;;;;29.50;18.10;;;3.80;99.90;;;;;;5001515;28;20190;-82
2020/12/03 03:33:21;;;;;;;28.37;16.90;;;3.90;99.90;;;;;;5010479;28;20178;-84
2020/12/03 03:35:47;;;;;;;27.57;18.13;;;3.90;99.90;;;;;;5010359;28;20724;-85
2020/12/03 03:38:13;;;;;;;29.57;18.37;;;3.90;99.90;;;;;;5015977;28;20262;-82
2020/12/03 03:40:39;;;;;;;28.70;18.27;;;3.90;99.90;;;;;;5012851;28;20207;-84
2020/12/03 03:43:04;;;;;;;27.77;17.83;;;3.90;99.90;;;;;;5012915;28;20208;-84
2020/12/03 03:45:49;;;;;;;26.83;17.03;;;3.90;99.90;;;;;;5030903;28;20236;-83
2020/12/03 03:48:15;;;;;;;28.43;17.23;;;3.90;99.90;;;;;;5015676;28;20248;-83
2020/12/03 03:50:40;;;;;;;29.23;17.90;;;3.90;99.90;;;;;;5033212;28;20244;-83
2020/12/03 03:53:06;;;;;;;27.97;17.60;;;4.00;99.90;;;;;;5032903;28;20193;-84
2020/12/03 03:55:31;;;;;;;29.07;18.23;;;4.00;99.90;;;;;;5020749;28;20179;-82
2020/12/03 03:57:57;;;;;;;29.03;18.40;;;4.00;99.90;;;;;;5021999;28;20237;-84
2020/12/03 04:00:22;;;;;;;27.70;17.37;;;4.00;99.90;;;;;;5014107;28;20206;-82
2020/12/03 04:02:48;;;;;;;30.50;18.23;;;4.00;99.90;;;;;;5013358;28;20190;-83
2020/12/03 04:05:14;;;;;;;26.93;16.83;;;4.00;99.90;;;;;;5013295;28;20186;-85
2020/12/03 04:07:40;;;;;;;28.40;16.80;;;4.00;99.90;;;;;;5012235;28;20207;-84
2020/12/03 04:10:05;;;;;;;26.93;16.77;;;4.00;99.90;;;;;;5010246;28;20210;-83
2020/12/03 04:12:31;;;;;;;26.87;16.83;;;4.00;99.90;;;;;;5012462;28;20273;-82
2020/12/03 04:15:00;;;;;;;25.27;16.07;;;4.10;99.90;;;;;;5012941;28;20174;-83
2020/12/03 04:17:28;;;;;;;29.27;17.47;;;4.10;99.90;;;;;;5011210;28;20210;-84
2020/12/03 04:19:54;;;;;;;25.63;16.67;;;4.00;99.90;;;;;;5025346;28;20206;-85
2020/12/03 04:22:20;;;;;;;28.63;16.47;;;4.10;99.90;;;;;;5025411;28;20224;-85
2020/12/03 04:24:46;;;;;;;27.10;16.63;;;4.10;99.90;;;;;;5009712;28;20174;-85
2020/12/03 04:27:12;;;;;;;28.23;17.63;;;4.10;99.90;;;;;;5029388;28;20171;-84
2020/12/03 04:29:37;;;;;;;28.33;18.37;;;4.00;99.90;;;;;;5008829;28;20735;-84
2020/12/03 04:32:03;;;;;;;30.67;17.80;;;4.10;99.90;;;;;;5008597;28;20175;-84
2020/12/03 04:34:28;;;;;;;29.80;17.87;;;4.00;99.90;;;;;;5024646;28;20183;-83
2020/12/03 04:36:54;;;;;;;27.57;16.87;;;4.00;99.90;;;;;;5006069;28;20250;-85
2020/12/03 04:39:19;;;;;;;27.27;17.73;;;4.00;99.90;;;;;;5022678;28;20199;-84
2020/12/03 04:41:45;;;;;;;27.77;16.90;;;4.00;99.90;;;;;;5022505;28;20553;-84
2020/12/03 04:44:20;;;;;;;29.80;17.63;;;4.10;99.90;;;;;;5009469;28;20558;-84
2020/12/03 04:47:14;;;;;;;28.57;17.57;;;4.00;99.90;;;;;;5024335;28;20657;-85
2020/12/03 04:50:11;;;;;;;27.60;16.90;;;4.00;99.90;;;;;;5041426;28;20198;-84
2020/12/03 04:52:58;;;;;;;29.83;16.83;;;4.00;99.90;;;;;;5007415;28;20182;-84
2020/12/03 04:55:29;;;;;;;31.07;17.70;;;4.00;99.90;;;;;;5025294;28;20191;-84
2020/12/03 04:58:00;;;;;;;31.70;18.37;;;4.00;99.90;;;;;;5023329;28;20507;-84
2020/12/03 05:00:31;;;;;;;32.50;18.10;;;4.00;99.90;;;;;;5023549;28;20209;-84
2020/12/03 05:03:12;;;;;;;30.90;17.77;;;4.00;99.90;;;;;;5022524;28;20186;-85
2020/12/03 05:05:44;;;;;;;28.60;17.23;;;4.00;99.90;;;;;;5041379;28;20182;-84
2020/12/03 05:08:24;;;;;;;33.27;18.03;;;4.00;99.90;;;;;;5022831;28;20214;-85
2020/12/03 05:10:50;;;;;;;28.97;17.57;;;4.00;99.90;;;;;;5017666;28;20252;-82
2020/12/03 05:13:25;;;;;;;33.47;19.43;;;4.00;99.90;;;;;;5001117;28;20214;-84
2020/12/03 05:15:56;;;;;;;28.17;17.87;;;4.10;99.90;;;;;;5000832;28;20190;-83
2020/12/03 05:18:41;;;;;;;26.80;17.13;;;4.00;99.90;;;;;;5000983;28;20203;-83
2020/12/03 05:21:06;;;;;;;34.17;19.57;;;4.00;99.90;;;;;;5000160;28;20284;-82
2020/12/03 05:23:33;;;;;;;29.07;17.73;;;4.00;99.90;;;;;;5017016;28;20556;-83
2020/12/03 05:26:00;;;;;;;32.97;19.80;;;4.00;99.90;;;;;;5016577;28;20699;-83
2020/12/03 05:28:38;;;;;;;31.57;19.40;;;4.00;99.90;;;;;;5000338;28;20595;-84
2020/12/03 05:31:28;;;;;;;29.77;18.10;;;4.10;99.90;;;;;;5000175;28;20642;-83
2020/12/03 05:33:59;;;;;;;28.77;18.60;;;4.10;99.90;;;;;;4995162;28;20217;-84
2020/12/03 05:36:28;;;;;;;32.97;19.07;;;4.00;99.90;;;;;;5016392;28;20167;-83
2020/12/03 05:38:53;;;;;;;28.73;18.17;;;4.10;99.90;;;;;;5016015;28;20950;-83
2020/12/03 05:41:19;;;;;;;32.67;19.20;;;4.10;99.90;;;;;;5017032;28;20290;-83
2020/12/03 05:43:45;;;;;;;30.73;17.87;;;4.10;99.90;;;;;;4999721;28;20217;-82
2020/12/03 05:46:11;;;;;;;28.97;17.03;;;4.20;99.90;;;;;;5016326;28;20638;-82
2020/12/03 05:48:37;;;;;;;30.37;18.17;;;4.10;99.90;;;;;;5016677;28;20193;-83
2020/12/03 05:51:22;;;;;;;29.13;17.93;;;4.10;99.90;;;;;;5016656;28;20232;-81
2020/12/03 05:53:57;;;;;;;31.40;17.57;;;4.10;99.90;;;;;;4999882;28;20669;-83
2020/12/03 05:56:24;;;;;;;30.70;18.23;;;4.20;99.90;;;;;;4999706;28;20190;-83
2020/12/03 05:58:49;;;;;;;28.63;17.83;;;4.20;99.90;;;;;;4999882;28;20198;-83
2020/12/03 06:01:23;;;;;;;29.83;17.77;;;4.20;99.90;;;;;;5015808;28;20200;-82
2020/12/03 06:03:58;;;;;;;29.73;17.93;;;4.20;99.90;;;;;;4999242;28;20225;-83
2020/12/03 06:06:46;;;;;;;28.67;17.53;;;4.20;99.90;;;;;;5000447;28;20576;-82
2020/12/03 06:09:14;;;;;;;29.50;17.97;;;4.20;99.90;;;;;;5015691;28;20214;-83
2020/12/03 06:11:44;;;;;;;31.00;17.20;;;4.20;99.90;;;;;;5033794;28;20186;-81
2020/12/03 06:14:21;;;;;;;29.07;17.70;;;4.20;99.90;;;;;;5016050;28;20178;-83
2020/12/03 06:17:02;;;;;;;27.23;17.07;;;4.20;99.90;;;;;;5033036;28;20183;-81
2020/12/03 06:19:48;;;;;;;26.63;16.30;;;4.20;99.90;;;;;;4999083;28;20281;-82
2020/12/03 06:22:19;;;;;;;28.10;17.10;;;4.20;99.90;;;;;;5034956;28;20198;-80
2020/12/03 06:24:46;;;;;;;27.23;15.50;;;4.30;99.90;;;;;;5017295;28;20203;-79
2020/12/03 06:27:45;;;;;;;26.43;15.10;;;4.20;99.90;;;;;;5032988;28;20528;-79
2020/12/03 06:30:26;;;;;;;26.57;15.47;;;4.10;99.90;;;;;;5023468;28;20197;-77
2020/12/03 06:33:10;;;;;;;27.17;15.80;;;4.10;99.90;;;;;;5001619;28;20193;-78
2020/12/03 06:36:05;;;;;;;26.33;15.53;;;4.10;99.90;;;;;;5016856;28;20171;-80
2020/12/03 06:39:08;;;;;;;26.40;15.10;;;4.00;99.90;;;;;;5012112;28;20685;-80
2020/12/03 06:41:46;;;;;;;26.57;15.53;;;4.00;99.90;;;;;;5033895;28;20214;-78
2020/12/03 06:44:21;;;;;;;22.57;13.70;;;4.00;99.90;;;;;;5016035;28;20258;-80
2020/12/03 06:47:02;;;;;;;25.80;15.33;;;4.00;99.90;;;;;;4984750;28;20181;-80
2020/12/03 06:49:42;;;;;;;23.97;14.50;;;4.00;99.90;;;;;;5033336;28;20250;-79
2020/12/03 06:52:14;;;;;;;25.30;14.10;;;4.00;99.90;;;;;;5019986;28;20186;-78
2020/12/03 06:54:49;;;;;;;21.33;13.50;;;4.00;99.90;;;;;;5012284;28;20171;-77
2020/12/03 06:57:32;;;;;;;20.87;14.10;;;4.00;99.90;;;;;;4979680;28;20175;-77
2020/12/03 07:00:08;;;;;;;22.30;13.73;;;4.00;99.90;;;;;;4995781;28;20235;-80
2020/12/03 07:02:39;;;;;;;20.40;12.80;;;4.00;99.90;;;;;;4996902;28;20187;-79
2020/12/03 07:05:42;;;;;;;19.17;11.30;;;4.10;99.90;;;;;;5033085;28;20169;-80
2020/12/03 07:08:31;;;;;;;18.20;11.90;;;4.10;99.90;;;;;;5003256;28;20220;-80
2020/12/03 07:11:05;;;;;;;22.90;13.20;;;4.10;99.90;;;;;;5032597;28;20187;-79
2020/12/03 07:13:37;;;;;;;17.80;11.60;;;4.10;99.90;;;;;;5020331;28;20190;-78
2020/12/03 07:16:21;;;;;;;16.93;11.83;;;4.10;99.90;;;;;;5020958;28;20653;-78
2020/12/03 07:19:05;;;;;;;16.77;10.17;;;4.10;99.90;;;;;;5037833;28;20202;-77
2020/12/03 07:21:50;;;;;;;15.20;10.70;;;4.10;99.90;;;;;;5027135;28;20214;-83
2020/12/03 07:24:25;;;;;;;13.97;9.07;;;4.10;99.90;;;;;;5046390;28;20269;-80
2020/12/03 07:27:10;;;;;;;15.00;9.20;;;4.10;99.90;;;;;;5005346;28;20220;-81
2020/12/03 07:29:58;;;;;;;14.13;9.40;;;4.10;99.90;;;;;;5040911;28;20189;-82
2020/12/03 07:32:32;;;;;;;14.50;9.30;;;4.10;99.90;;;;;;5010889;28;20185;-82
2020/12/03 07:35:20;;;;;;;14.23;9.10;;;4.10;99.90;;;;;;5029303;28;20173;-81
2020/12/03 07:38:11;;;;;;;11.40;8.43;;;4.10;99.90;;;;;;5047242;28;20178;-81
2020/12/03 07:40:37;;;;;;;12.40;8.67;;;4.20;99.90;;;;;;5013678;28;20241;-84
2020/12/03 07:43:21;;;;;;;12.17;8.33;;;4.20;99.90;;;;;;5014112;28;20179;-85
2020/12/03 07:45:49;;;;;;;11.97;8.90;;;4.20;99.90;;;;;;5010055;28;20554;-83
2020/12/03 07:48:15;;;;;;;13.27;8.47;;;4.20;99.90;;;;;;5009922;28;20578;-84
2020/12/03 07:50:50;;;;;;;10.93;7.60;;;4.30;99.90;;;;;;5025964;28;20187;-81
2020/12/03 07:53:23;;;;;;;12.33;8.60;;;4.30;99.90;;;;;;5025046;28;20190;-83
2020/12/03 07:55:48;;;;;;;12.57;9.10;;;4.30;99.90;;;;;;5023596;28;20186;-79
2020/12/03 07:58:36;;;;;;;11.77;8.53;;;4.20;99.90;;;;;;5020855;28;20607;-80
2020/12/03 08:01:03;;;;;;;10.83;7.53;;;4.20;99.90;;;;;;5006986;28;20677;-81
2020/12/03 08:03:41;;;;;;;12.13;8.47;;;4.20;99.90;;;;;;4987364;28;20224;-79
2020/12/03 08:06:25;;;;;;;11.43;8.40;;;4.20;99.90;;;;;;5036149;28;20205;-82
2020/12/03 08:08:59;;;;;;;14.40;8.80;;;4.30;99.90;;;;;;5022072;28;20214;-81
2020/12/03 08:11:47;;;;;;;11.03;8.27;;;4.30;99.90;;;;;;5042114;28;20177;-82
2020/12/03 08:14:28;;;;;;;11.03;7.93;;;4.30;99.90;;;;;;5006001;28;20664;-84
2020/12/03 08:16:54;;;;;;;11.77;7.90;;;4.30;99.90;;;;;;5025742;28;20178;-82
2020/12/03 08:19:34;;;;;;;12.60;7.90;;;4.30;99.90;;;;;;5012735;28;20642;-84
2020/12/03 08:21:59;;;;;;;10.73;7.97;;;4.40;99.90;;;;;;4996592;28;20254;-83
2020/12/03 08:24:27;;;;;;;11.93;7.87;;;4.30;99.90;;;;;;5029291;28;20202;-81
2020/12/03 08:27:00;;;;;;;12.70;8.50;;;4.30;99.90;;;;;;4994127;28;20181;-81
2020/12/03 08:29:37;;;;;;;12.17;8.70;;;4.30;99.90;;;;;;5028743;28;20201;-80
2020/12/03 08:32:03;;;;;;;13.30;8.50;;;4.30;99.90;;;;;;5047693;28;20285;-82
2020/12/03 08:34:35;;;;;;;13.40;8.73;;;4.30;99.90;;;;;;5031653;28;20189;-82
2020/12/03 08:37:05;;;;;;;11.80;8.20;;;4.30;99.90;;;;;;4998230;28;20175;-82
2020/12/03 08:39:31;;;;;;;13.43;8.63;;;4.30;99.90;;;;;;4993134;28;20234;-81
2020/12/03 08:41:57;;;;;;;11.20;8.07;;;4.30;99.90;;;;;;4994057;28;20172;-81
2020/12/03 08:44:23;;;;;;;13.37;9.03;;;4.30;99.90;;;;;;4993674;28;20549;-80
2020/12/03 08:46:50;;;;;;;12.70;8.73;;;4.30;99.90;;;;;;4992406;28;20180;-79
2020/12/03 08:49:23;;;;;;;13.70;8.77;;;4.30;99.90;;;;;;4982861;28;20762;-79
2020/12/03 08:51:54;;;;;;;12.87;8.90;;;4.30;99.90;;;;;;4985183;28;20635;-80
2020/12/03 08:54:27;;;;;;;15.37;9.37;;;4.30;99.90;;;;;;4984895;28;20635;-80
2020/12/03 08:57:02;;;;;;;13.00;8.63;;;4.30;99.90;;;;;;4982773;28;20207;-83
2020/12/03 08:59:30;;;;;;;12.47;8.47;;;4.30;99.90;;;;;;4983966;28;20245;-80
2020/12/03 09:02:05;;;;;;;15.27;9.17;;;4.30;99.90;;;;;;4982893;28;20521;-80
2020/12/03 09:04:31;;;;;;;15.70;9.57;;;4.30;99.90;;;;;;4984327;28;20227;-81
2020/12/03 09:06:56;;;;;;;12.50;8.97;;;4.30;99.90;;;;;;4983161;28;20178;-80
2020/12/03 09:09:23;;;;;;;13.33;8.77;;;4.30;99.90;;;;;;4982534;28;20563;-80
2020/12/03 09:11:48;;;;;;;13.97;9.70;;;4.30;99.90;;;;;;4983660;28;20677;-80
2020/12/03 09:14:14;;;;;;;13.53;9.60;;;4.30;99.90;;;;;;4984143;28;20262;-80
2020/12/03 09:16:42;;;;;;;14.33;10.03;;;4.30;99.90;;;;;;4981598;28;20178;-78
2020/12/03 09:19:07;;;;;;;13.13;9.40;;;4.30;99.90;;;;;;4979892;28;20207;-78
2020/12/03 09:21:33;;;;;;;14.53;9.87;;;4.30;99.90;;;;;;4979877;28;20257;-79
2020/12/03 09:23:59;;;;;;;14.97;9.77;;;4.30;99.90;;;;;;4979848;28;20548;-79
2020/12/03 09:26:33;;;;;;;16.53;9.80;;;4.20;99.90;;;;;;4979226;28;20171;-78
2020/12/03 09:28:59;;;;;;;13.40;9.50;;;4.20;99.90;;;;;;4979971;28;20201;-78
2020/12/03 09:31:25;;;;;;;15.50;10.13;;;4.20;99.90;;;;;;4979379;28;20176;-78
2020/12/03 09:33:51;;;;;;;15.83;9.83;;;4.20;99.90;;;;;;4986362;28;20190;-82
2020/12/03 09:36:17;;;;;;;13.77;9.57;;;4.20;99.90;;;;;;4989137;28;20667;-80
2020/12/03 09:38:42;;;;;;;14.60;10.23;;;4.20;99.90;;;;;;4989395;28;20203;-80
2020/12/03 09:41:08;;;;;;;17.97;10.53;;;4.30;99.90;;;;;;4998227;28;20259;-82
2020/12/03 09:43:34;;;;;;;14.93;10.33;;;4.20;99.90;;;;;;4989908;28;20177;-81
2020/12/03 09:46:00;;;;;;;14.47;10.07;;;4.30;99.90;;;;;;4987805;28;20211;-82
2020/12/03 09:48:26;;;;;;;16.10;9.60;;;4.40;99.90;;;;;;4987498;28;20209;-80
2020/12/03 09:50:52;;;;;;;17.10;10.90;;;4.40;99.90;;;;;;4985490;28;20182;-81
2020/12/03 09:53:19;;;;;;;16.33;10.70;;;4.30;99.90;;;;;;5003194;28;20198;-79
2020/12/03 09:55:45;;;;;;;15.63;10.33;;;4.30;99.90;;;;;;5018993;28;20174;-78
2020/12/03 09:58:11;;;;;;;15.50;10.67;;;4.30;99.90;;;;;;5018009;28;20572;-79
2020/12/03 10:00:40;;;;;;;15.27;9.77;;;4.40;99.90;;;;;;5037459;28;20194;-80
2020/12/03 10:03:20;;;;;;;14.07;9.77;;;4.40;99.90;;;;;;5001682;28;20181;-78
2020/12/03 10:06:01;;;;;;;15.17;10.50;;;4.40;99.90;;;;;;5032280;28;20177;-81
2020/12/03 10:08:55;;;;;;;15.17;11.17;;;4.40;99.90;;;;;;4986781;28;20232;-83
2020/12/03 10:11:42;;;;;;;16.03;9.90;;;4.40;99.90;;;;;;5033630;28;20567;-79
2020/12/03 10:14:35;;;;;;;15.77;9.73;;;4.40;99.90;;;;;;5032320;28;20175;-82
2020/12/03 10:17:05;;;;;;;15.97;9.93;;;4.50;99.90;;;;;;5017364;28;20178;-80
2020/12/03 10:19:51;;;;;;;15.53;10.90;;;4.40;99.90;;;;;;5020433;28;20195;-87
2020/12/03 10:22:23;;;;;;;13.13;9.27;;;4.50;99.90;;;;;;5034532;28;20605;-81
2020/12/03 10:24:48;;;;;;;15.17;9.83;;;4.50;99.90;;;;;;5037792;28;20260;-81
2020/12/03 10:27:33;;;;;;;13.07;9.37;;;4.50;99.90;;;;;;5033601;28;20245;-77
2020/12/03 10:30:00;;;;;;;13.00;8.60;;;4.50;99.90;;;;;;5004140;28;20209;-78
2020/12/03 10:32:26;;;;;;;16.60;10.17;;;4.60;99.90;;;;;;4998588;28;20183;-79
2020/12/03 10:34:51;;;;;;;13.70;9.73;;;4.60;99.90;;;;;;4997884;28;20206;-80
2020/12/03 10:37:35;;;;;;;11.47;8.70;;;4.60;99.90;;;;;;4989645;28;20709;-81
2020/12/03 10:40:09;;;;;;;12.47;8.97;;;4.60;99.90;;;;;;5015758;28;20244;-82
2020/12/03 10:42:38;;;;;;;16.93;9.13;;;4.70;99.90;;;;;;5019687;28;20241;-82
2020/12/03 10:45:18;;;;;;;12.73;8.77;;;4.80;99.90;;;;;;5000086;28;20601;-78
2020/12/03 10:47:56;;;;;;;11.87;8.63;;;4.70;99.90;;;;;;4991038;28;20183;-78
2020/12/03 10:50:21;;;;;;;16.53;10.13;;;4.80;99.90;;;;;;4993057;28;20197;-81
2020/12/03 10:52:47;;;;;;;14.40;9.73;;;4.70;99.90;;;;;;5003576;28;20207;-80
2020/12/03 10:55:16;;;;;;;13.13;8.83;;;4.70;99.90;;;;;;5019375;28;20261;-83
2020/12/03 10:57:43;;;;;;;13.57;9.33;;;4.70;99.90;;;;;;4999415;28;20187;-78
2020/12/03 11:00:09;;;;;;;12.03;8.40;;;4.70;99.90;;;;;;5013956;28;20193;-79
2020/12/03 11:02:42;;;;;;;11.53;8.67;;;4.80;99.90;;;;;;4998112;28;20225;-81
2020/12/03 11:05:08;;;;;;;11.27;8.50;;;4.80;99.90;;;;;;4998609;28;20182;-79
2020/12/03 11:07:35;;;;;;;12.87;8.57;;;4.90;99.90;;;;;;4991340;28;20225;-79
2020/12/03 11:10:00;;;;;;;11.53;7.67;;;4.90;99.90;;;;;;5032604;28;20211;-82
2020/12/03 11:12:26;;;;;;;12.13;8.37;;;4.90;99.90;;;;;;4983494;28;20213;-80
2020/12/03 11:14:52;;;;;;;12.03;8.30;;;4.90;99.90;;;;;;4985223;28;20187;-80
2020/12/03 11:17:24;;;;;;;11.87;8.07;;;5.00;99.90;;;;;;5001587;28;20500;-79
2020/12/03 11:19:50;;;;;;;11.60;8.40;;;4.90;99.90;;;;;;5033104;28;20210;-83
2020/12/03 11:22:40;;;;;;;10.43;7.00;;;5.00;99.90;;;;;;4983285;28;20631;-85
2020/12/03 11:25:06;;;;;;;10.43;7.80;;;5.00;99.90;;;;;;5015443;28;20647;-83
2020/12/03 11:27:31;;;;;;;11.43;8.63;;;5.00;99.90;;;;;;4983186;28;20274;-83
2020/12/03 11:29:57;;;;;;;11.60;8.80;;;5.00;99.90;;;;;;4982804;28;20240;-83
2020/12/03 11:32:23;;;;;;;11.20;8.07;;;5.00;99.90;;;;;;4982561;28;20185;-84
2020/12/03 11:34:49;;;;;;;11.50;8.10;;;5.10;99.90;;;;;;4982852;28;20190;-84
2020/12/03 11:37:19;;;;;;;12.83;8.87;;;5.10;99.90;;;;;;5014184;28;20554;-84
2020/12/03 11:39:44;;;;;;;11.00;8.33;;;5.20;99.90;;;;;;4982062;28;20235;-85
2020/12/03 11:42:24;;;;;;;11.53;8.27;;;5.40;99.90;;;;;;4980529;28;20180;-86
2020/12/03 11:45:25;;;;;;;11.70;7.90;;;5.40;99.90;;;;;;4986348;28;20185;-84
2020/12/03 11:50:21;;;;;;;11.90;7.83;;;5.50;99.90;;;;;;5015657;28;20630;-85
2020/12/03 11:52:46;;;;;;;11.13;8.07;;;5.50;99.90;;;;;;5002402;28;20184;-84
2020/12/03 11:55:23;;;;;;;11.80;8.20;;;5.50;99.90;;;;;;5018610;28;20258;-82
2020/12/03 11:57:49;;;;;;;14.27;7.77;;;5.50;99.90;;;;;;5000545;28;20641;-84
2020/12/03 12:00:16;;;;;;;10.57;7.93;;;5.40;99.90;;;;;;5018899;28;20205;-85
2020/12/03 12:02:41;;;;;;;10.87;7.73;;;5.40;99.90;;;;;;5020755;28;20246;-79
2020/12/03 12:05:14;;;;;;;9.97;7.83;;;5.40;99.90;;;;;;5003564;28;20214;-81
2020/12/03 12:07:56;;;;;;;12.07;8.13;;;5.40;99.90;;;;;;4986036;28;20286;-80
2020/12/03 12:10:29;;;;;;;12.30;7.90;;;5.40;99.90;;;;;;5002757;28;20217;-81
2020/12/03 12:12:55;;;;;;;10.93;8.20;;;5.40;99.90;;;;;;5010784;28;20181;-82
2020/12/03 12:15:20;;;;;;;10.43;7.70;;;5.40;99.90;;;;;;5020583;28;20244;-79
2020/12/03 12:17:46;;;;;;;11.67;8.13;;;5.50;99.90;;;;;;5019667;28;20656;-79
2020/12/03 12:20:13;;;;;;;11.07;7.80;;;5.50;99.90;;;;;;5003383;28;20229;-80
2020/12/03 12:22:39;;;;;;;10.93;8.43;;;5.60;99.90;;;;;;5002753;28;20651;-81
2020/12/03 12:25:06;;;;;;;10.43;8.07;;;5.60;99.90;;;;;;5019980;28;20188;-78
2020/12/03 12:27:31;;;;;;;10.10;7.20;;;5.60;99.90;;;;;;5000552;28;20179;-79
2020/12/03 12:29:57;;;;;;;10.93;7.73;;;5.50;99.90;;;;;;5017004;28;20201;-78
2020/12/03 12:32:23;;;;;;;12.87;8.37;;;5.50;99.90;;;;;;5000995;28;20194;-81
2020/12/03 12:34:48;;;;;;;11.00;7.90;;;5.70;99.90;;;;;;5019650;28;20190;-81
2020/12/03 12:37:14;;;;;;;11.40;8.57;;;5.70;99.90;;;;;;5020195;28;20178;-80
2020/12/03 12:39:39;;;;;;;10.00;7.73;;;5.60;99.90;;;;;;5018957;28;20227;-91
2020/12/03 12:42:06;;;;;;;10.53;7.97;;;5.60;99.90;;;;;;5005167;28;20186;-80
2020/12/03 12:44:32;;;;;;;12.37;7.80;;;5.60;99.90;;;;;;5004503;28;20205;-81
2020/12/03 12:46:58;;;;;;;11.97;8.67;;;5.60;99.90;;;;;;5019748;28;20187;-83
2020/12/03 12:49:24;;;;;;;14.10;7.90;;;5.60;99.90;;;;;;5004127;28;20248;-82
2020/12/03 12:51:49;;;;;;;9.20;7.60;;;5.60;99.90;;;;;;5001964;28;20186;-82
2020/12/03 12:54:15;;;;;;;10.40;7.77;;;5.70;99.90;;;;;;5016967;28;20640;-84
2020/12/03 12:56:42;;;;;;;10.80;8.57;;;5.70;99.90;;;;;;5024166;28;20186;-83
2020/12/03 12:59:08;;;;;;;13.27;8.77;;;5.60;99.90;;;;;;5008486;28;20203;-81
2020/12/03 13:01:33;;;;;;;14.13;8.60;;;5.70;99.90;;;;;;5023719;28;20205;-82
2020/12/03 13:03:59;;;;;;;11.30;8.00;;;5.70;99.90;;;;;;5019638;28;20240;-79